sensor_id;sensor_type;location;lat;lon;timestamp;P1;durP1;ratioP1;P2;durP2;ratioP2
5754;SDS011;2902;42.130;24.732;2023-08-01T00:01:00;4.80;;;4.50;;
5754;SDS011;2902;42.130;24.732;2023-08-01T00:03:26;4.67;;;4.47;;
5754;SDS011;2902;42.130;24.732;2023-08-01T00:05:53;7.13;;;5.20;;
5754;SDS011;2902;42.130;24.732;2023-08-01T00:08:21;4.83;;;4.43;;
5754;SDS011;2902;42.130;24.732;2023-08-01T00:10:48;5.67;;;5.27;;
5754;SDS011;2902;42.130;24.732;2023-08-01T00:13:15;5.17;;;4.87;;
5754;SDS011;2902;42.130;24.732;2023-08-01T00:15:41;5.13;;;4.83;;
5754;SDS011;2902;42.130;24.732;2023-08-01T00:18:08;4.87;;;4.57;;
5754;SDS011;2902;42.130;24.732;2023-08-01T00:20:35;5.23;;;4.83;;
5754;SDS011;2902;42.130;24.732;2023-08-01T00:23:01;5.73;;;5.20;;
5754;SDS011;2902;42.130;24.732;2023-08-01T00:25:29;5.37;;;5.07;;
5754;SDS011;2902;42.130;24.732;2023-08-01T00:27:56;5.90;;;5.03;;
5754;SDS011;2902;42.130;24.732;2023-08-01T00:30:23;5.03;;;4.63;;
5754;SDS011;2902;42.130;24.732;2023-08-01T00:32:49;5.13;;;4.83;;
5754;SDS011;2902;42.130;24.732;2023-08-01T00:35:16;5.20;;;4.90;;
5754;SDS011;2902;42.130;24.732;2023-08-01T00:37:43;5.20;;;4.80;;
5754;SDS011;2902;42.130;24.732;2023-08-01T00:40:10;5.30;;;4.90;;
5754;SDS011;2902;42.130;24.732;2023-08-01T00:42:38;5.80;;;4.50;;
5754;SDS011;2902;42.130;24.732;2023-08-01T00:45:05;4.93;;;4.73;;
5754;SDS011;2902;42.130;24.732;2023-08-01T00:47:33;6.70;;;4.77;;
5754;SDS011;2902;42.130;24.732;2023-08-01T00:50:00;5.03;;;4.70;;
5754;SDS011;2902;42.130;24.732;2023-08-01T00:52:27;5.17;;;4.83;;
5754;SDS011;2902;42.130;24.732;2023-08-01T00:54:55;4.23;;;3.87;;
5754;SDS011;2902;42.130;24.732;2023-08-01T00:57:22;4.47;;;4.13;;
5754;SDS011;2902;42.130;24.732;2023-08-01T00:59:50;4.70;;;4.40;;
5754;SDS011;2902;42.130;24.732;2023-08-01T01:02:17;4.80;;;4.50;;
5754;SDS011;2902;42.130;24.732;2023-08-01T01:04:44;5.57;;;5.27;;
5754;SDS011;2902;42.130;24.732;2023-08-01T01:07:10;4.70;;;4.40;;
5754;SDS011;2902;42.130;24.732;2023-08-01T01:09:38;4.43;;;4.23;;
5754;SDS011;2902;42.130;24.732;2023-08-01T01:12:05;4.83;;;4.60;;
5754;SDS011;2902;42.130;24.732;2023-08-01T01:14:32;4.80;;;4.50;;
5754;SDS011;2902;42.130;24.732;2023-08-01T01:17:00;4.83;;;4.53;;
5754;SDS011;2902;42.130;24.732;2023-08-01T01:19:27;5.17;;;4.67;;
5754;SDS011;2902;42.130;24.732;2023-08-01T01:22:01;5.03;;;4.73;;
5754;SDS011;2902;42.130;24.732;2023-08-01T01:24:30;4.60;;;4.20;;
5754;SDS011;2902;42.130;24.732;2023-08-01T01:26:58;4.87;;;4.57;;
5754;SDS011;2902;42.130;24.732;2023-08-01T01:29:25;4.87;;;4.57;;
5754;SDS011;2902;42.130;24.732;2023-08-01T01:31:53;4.60;;;4.30;;
5754;SDS011;2902;42.130;24.732;2023-08-01T01:34:20;5.20;;;4.43;;
5754;SDS011;2902;42.130;24.732;2023-08-01T01:36:48;4.40;;;4.20;;
5754;SDS011;2902;42.130;24.732;2023-08-01T01:39:16;5.57;;;4.63;;
5754;SDS011;2902;42.130;24.732;2023-08-01T01:41:43;4.37;;;4.07;;
5754;SDS011;2902;42.130;24.732;2023-08-01T01:44:09;4.90;;;4.50;;
5754;SDS011;2902;42.130;24.732;2023-08-01T01:46:36;5.03;;;4.57;;
5754;SDS011;2902;42.130;24.732;2023-08-01T01:49:03;4.83;;;4.50;;
5754;SDS011;2902;42.130;24.732;2023-08-01T01:51:29;4.90;;;4.60;;
5754;SDS011;2902;42.130;24.732;2023-08-01T01:53:56;4.70;;;4.30;;
5754;SDS011;2902;42.130;24.732;2023-08-01T01:56:24;5.00;;;4.70;;
5754;SDS011;2902;42.130;24.732;2023-08-01T01:58:51;4.37;;;4.07;;
5754;SDS011;2902;42.130;24.732;2023-08-01T02:01:18;4.40;;;4.10;;
5754;SDS011;2902;42.130;24.732;2023-08-01T02:03:44;5.27;;;4.43;;
5754;SDS011;2902;42.130;24.732;2023-08-01T02:06:11;4.50;;;4.20;;
5754;SDS011;2902;42.130;24.732;2023-08-01T02:08:38;4.87;;;4.47;;
5754;SDS011;2902;42.130;24.732;2023-08-01T02:11:04;4.20;;;4.00;;
5754;SDS011;2902;42.130;24.732;2023-08-01T02:13:32;4.30;;;4.00;;
5754;SDS011;2902;42.130;24.732;2023-08-01T02:15:59;4.30;;;4.03;;
5754;SDS011;2902;42.130;24.732;2023-08-01T02:18:26;3.90;;;3.70;;
5754;SDS011;2902;42.130;24.732;2023-08-01T02:20:53;3.80;;;3.57;;
5754;SDS011;2902;42.130;24.732;2023-08-01T02:23:19;6.33;;;3.80;;
5754;SDS011;2902;42.130;24.732;2023-08-01T02:25:46;4.90;;;4.60;;
5754;SDS011;2902;42.130;24.732;2023-08-01T02:28:13;4.03;;;3.83;;
5754;SDS011;2902;42.130;24.732;2023-08-01T02:30:41;4.27;;;3.90;;
5754;SDS011;2902;42.130;24.732;2023-08-01T02:33:08;4.60;;;3.73;;
5754;SDS011;2902;42.130;24.732;2023-08-01T02:35:34;3.43;;;3.23;;
5754;SDS011;2902;42.130;24.732;2023-08-01T02:38:02;4.23;;;3.83;;
5754;SDS011;2902;42.130;24.732;2023-08-01T02:40:29;4.17;;;3.97;;
5754;SDS011;2902;42.130;24.732;2023-08-01T02:42:55;4.07;;;3.77;;
5754;SDS011;2902;42.130;24.732;2023-08-01T02:45:22;5.33;;;4.10;;
5754;SDS011;2902;42.130;24.732;2023-08-01T02:47:50;4.00;;;3.63;;
5754;SDS011;2902;42.130;24.732;2023-08-01T02:50:17;4.10;;;3.80;;
5754;SDS011;2902;42.130;24.732;2023-08-01T02:52:43;3.80;;;3.33;;
5754;SDS011;2902;42.130;24.732;2023-08-01T02:55:10;6.13;;;4.10;;
5754;SDS011;2902;42.130;24.732;2023-08-01T02:57:37;4.57;;;3.70;;
5754;SDS011;2902;42.130;24.732;2023-08-01T03:00:04;4.20;;;4.00;;
5754;SDS011;2902;42.130;24.732;2023-08-01T03:02:36;6.60;;;3.60;;
5754;SDS011;2902;42.130;24.732;2023-08-01T03:05:05;6.33;;;3.70;;
5754;SDS011;2902;42.130;24.732;2023-08-01T03:07:32;5.00;;;4.17;;
5754;SDS011;2902;42.130;24.732;2023-08-01T03:09:59;3.90;;;3.60;;
5754;SDS011;2902;42.130;24.732;2023-08-01T03:12:26;4.73;;;4.37;;
5754;SDS011;2902;42.130;24.732;2023-08-01T03:14:53;4.07;;;3.60;;
5754;SDS011;2902;42.130;24.732;2023-08-01T03:17:20;4.27;;;4.07;;
5754;SDS011;2902;42.130;24.732;2023-08-01T03:19:46;5.03;;;4.53;;
5754;SDS011;2902;42.130;24.732;2023-08-01T03:22:15;3.90;;;3.60;;
5754;SDS011;2902;42.130;24.732;2023-08-01T03:24:42;6.00;;;5.00;;
5754;SDS011;2902;42.130;24.732;2023-08-01T03:27:09;4.43;;;4.13;;
5754;SDS011;2902;42.130;24.732;2023-08-01T03:29:35;4.97;;;4.33;;
5754;SDS011;2902;42.130;24.732;2023-08-01T03:32:02;4.83;;;4.30;;
5754;SDS011;2902;42.130;24.732;2023-08-01T03:34:29;8.10;;;5.27;;
5754;SDS011;2902;42.130;24.732;2023-08-01T03:36:56;4.73;;;4.33;;
5754;SDS011;2902;42.130;24.732;2023-08-01T03:39:24;6.57;;;4.60;;
5754;SDS011;2902;42.130;24.732;2023-08-01T03:41:51;11.63;;;5.10;;
5754;SDS011;2902;42.130;24.732;2023-08-01T03:44:18;6.53;;;4.67;;
5754;SDS011;2902;42.130;24.732;2023-08-01T03:46:44;4.77;;;4.20;;
5754;SDS011;2902;42.130;24.732;2023-08-01T03:49:12;4.83;;;4.43;;
5754;SDS011;2902;42.130;24.732;2023-08-01T03:51:39;8.67;;;4.63;;
5754;SDS011;2902;42.130;24.732;2023-08-01T03:54:05;5.57;;;4.53;;
5754;SDS011;2902;42.130;24.732;2023-08-01T03:56:33;4.77;;;4.17;;
5754;SDS011;2902;42.130;24.732;2023-08-01T03:59:00;7.23;;;4.33;;
5754;SDS011;2902;42.130;24.732;2023-08-01T04:01:26;4.73;;;4.20;;
5754;SDS011;2902;42.130;24.732;2023-08-01T04:03:52;4.67;;;4.20;;
5754;SDS011;2902;42.130;24.732;2023-08-01T04:06:19;6.63;;;4.13;;
5754;SDS011;2902;42.130;24.732;2023-08-01T04:08:46;5.07;;;4.00;;
5754;SDS011;2902;42.130;24.732;2023-08-01T04:11:12;14.60;;;4.97;;
5754;SDS011;2902;42.130;24.732;2023-08-01T04:13:40;8.33;;;4.23;;
5754;SDS011;2902;42.130;24.732;2023-08-01T04:16:07;8.10;;;5.23;;
5754;SDS011;2902;42.130;24.732;2023-08-01T04:18:34;15.03;;;4.57;;
5754;SDS011;2902;42.130;24.732;2023-08-01T04:21:01;10.17;;;5.00;;
5754;SDS011;2902;42.130;24.732;2023-08-01T04:23:28;5.13;;;4.50;;
5754;SDS011;2902;42.130;24.732;2023-08-01T04:25:55;5.53;;;4.20;;
5754;SDS011;2902;42.130;24.732;2023-08-01T04:28:23;5.77;;;4.20;;
5754;SDS011;2902;42.130;24.732;2023-08-01T04:30:51;8.70;;;4.67;;
5754;SDS011;2902;42.130;24.732;2023-08-01T04:33:18;5.37;;;4.00;;
5754;SDS011;2902;42.130;24.732;2023-08-01T04:35:45;4.90;;;4.50;;
5754;SDS011;2902;42.130;24.732;2023-08-01T04:38:11;5.73;;;4.30;;
5754;SDS011;2902;42.130;24.732;2023-08-01T04:40:38;5.30;;;3.40;;
5754;SDS011;2902;42.130;24.732;2023-08-01T04:43:05;6.43;;;5.03;;
5754;SDS011;2902;42.130;24.732;2023-08-01T04:45:32;4.00;;;3.70;;
5754;SDS011;2902;42.130;24.732;2023-08-01T04:48:00;9.67;;;5.03;;
5754;SDS011;2902;42.130;24.732;2023-08-01T04:50:27;12.00;;;5.27;;
5754;SDS011;2902;42.130;24.732;2023-08-01T04:52:54;7.63;;;4.10;;
5754;SDS011;2902;42.130;24.732;2023-08-01T04:55:20;9.33;;;4.53;;
5754;SDS011;2902;42.130;24.732;2023-08-01T04:57:47;8.83;;;3.83;;
5754;SDS011;2902;42.130;24.732;2023-08-01T05:00:14;12.03;;;5.00;;
5754;SDS011;2902;42.130;24.732;2023-08-01T05:02:41;12.83;;;4.90;;
5754;SDS011;2902;42.130;24.732;2023-08-01T05:05:09;6.10;;;4.60;;
5754;SDS011;2902;42.130;24.732;2023-08-01T05:07:36;5.87;;;4.47;;
5754;SDS011;2902;42.130;24.732;2023-08-01T05:10:03;9.97;;;4.40;;
5754;SDS011;2902;42.130;24.732;2023-08-01T05:12:30;5.07;;;4.60;;
5754;SDS011;2902;42.130;24.732;2023-08-01T05:14:56;9.40;;;4.50;;
5754;SDS011;2902;42.130;24.732;2023-08-01T05:17:23;10.80;;;6.70;;
5754;SDS011;2902;42.130;24.732;2023-08-01T05:19:50;7.70;;;4.23;;
5754;SDS011;2902;42.130;24.732;2023-08-01T05:22:18;5.93;;;4.37;;
5754;SDS011;2902;42.130;24.732;2023-08-01T05:24:45;5.10;;;3.93;;
5754;SDS011;2902;42.130;24.732;2023-08-01T05:27:11;15.13;;;13.67;;
5754;SDS011;2902;42.130;24.732;2023-08-01T05:29:38;9.23;;;4.27;;
5754;SDS011;2902;42.130;24.732;2023-08-01T05:32:05;10.90;;;4.10;;
5754;SDS011;2902;42.130;24.732;2023-08-01T05:34:32;6.03;;;4.10;;
5754;SDS011;2902;42.130;24.732;2023-08-01T05:36:59;7.63;;;4.43;;
5754;SDS011;2902;42.130;24.732;2023-08-01T05:39:27;4.43;;;3.40;;
5754;SDS011;2902;42.130;24.732;2023-08-01T05:41:54;4.60;;;3.70;;
5754;SDS011;2902;42.130;24.732;2023-08-01T05:44:20;3.83;;;3.57;;
5754;SDS011;2902;42.130;24.732;2023-08-01T05:46:47;3.87;;;3.60;;
5754;SDS011;2902;42.130;24.732;2023-08-01T05:49:14;4.47;;;3.15;;
5754;SDS011;2902;42.130;24.732;2023-08-01T05:51:41;5.03;;;3.30;;
5754;SDS011;2902;42.130;24.732;2023-08-01T05:54:07;13.90;;;3.80;;
5754;SDS011;2902;42.130;24.732;2023-08-01T05:56:35;8.48;;;3.40;;
5754;SDS011;2902;42.130;24.732;2023-08-01T05:59:02;5.00;;;3.55;;
5754;SDS011;2902;42.130;24.732;2023-08-01T06:01:29;6.95;;;3.47;;
5754;SDS011;2902;42.130;24.732;2023-08-01T06:03:55;6.50;;;3.10;;
5754;SDS011;2902;42.130;24.732;2023-08-01T06:06:22;4.57;;;3.08;;
5754;SDS011;2902;42.130;24.732;2023-08-01T06:08:49;8.48;;;2.80;;
5754;SDS011;2902;42.130;24.732;2023-08-01T06:11:16;5.38;;;2.70;;
5754;SDS011;2902;42.130;24.732;2023-08-01T06:13:44;3.38;;;2.60;;
5754;SDS011;2902;42.130;24.732;2023-08-01T06:16:11;4.25;;;3.20;;
5754;SDS011;2902;42.130;24.732;2023-08-01T06:18:38;9.75;;;2.53;;
5754;SDS011;2902;42.130;24.732;2023-08-01T06:21:04;4.70;;;3.10;;
5754;SDS011;2902;42.130;24.732;2023-08-01T06:23:31;3.33;;;2.80;;
5754;SDS011;2902;42.130;24.732;2023-08-01T06:25:58;3.83;;;3.45;;
5754;SDS011;2902;42.130;24.732;2023-08-01T06:28:24;4.65;;;2.90;;
5754;SDS011;2902;42.130;24.732;2023-08-01T06:30:52;7.38;;;3.28;;
5754;SDS011;2902;42.130;24.732;2023-08-01T06:33:19;5.65;;;3.03;;
5754;SDS011;2902;42.130;24.732;2023-08-01T06:35:46;3.60;;;2.67;;
5754;SDS011;2902;42.130;24.732;2023-08-01T06:38:13;10.13;;;3.85;;
5754;SDS011;2902;42.130;24.732;2023-08-01T06:40:39;5.47;;;2.45;;
5754;SDS011;2902;42.130;24.732;2023-08-01T06:43:06;12.55;;;2.53;;
5754;SDS011;2902;42.130;24.732;2023-08-01T06:45:33;4.05;;;3.10;;
5754;SDS011;2902;42.130;24.732;2023-08-01T06:48:01;6.05;;;2.90;;
5754;SDS011;2902;42.130;24.732;2023-08-01T06:50:28;2.50;;;2.40;;
5754;SDS011;2902;42.130;24.732;2023-08-01T06:52:54;4.57;;;2.78;;
5754;SDS011;2902;42.130;24.732;2023-08-01T06:55:21;15.52;;;3.47;;
5754;SDS011;2902;42.130;24.732;2023-08-01T06:57:48;7.97;;;2.90;;
5754;SDS011;2902;42.130;24.732;2023-08-01T07:00:15;5.75;;;2.60;;
5754;SDS011;2902;42.130;24.732;2023-08-01T07:02:41;5.35;;;2.53;;
5754;SDS011;2902;42.130;24.732;2023-08-01T07:05:09;13.48;;;2.90;;
5754;SDS011;2902;42.130;24.732;2023-08-01T07:07:36;4.80;;;2.30;;
5754;SDS011;2902;42.130;24.732;2023-08-01T07:10:03;8.48;;;2.72;;
5754;SDS011;2902;42.130;24.732;2023-08-01T07:12:30;7.38;;;2.40;;
5754;SDS011;2902;42.130;24.732;2023-08-01T07:14:57;2.67;;;2.20;;
5754;SDS011;2902;42.130;24.732;2023-08-01T07:17:24;2.40;;;2.30;;
5754;SDS011;2902;42.130;24.732;2023-08-01T07:19:50;3.42;;;1.92;;
5754;SDS011;2902;42.130;24.732;2023-08-01T07:22:18;5.25;;;1.98;;
5754;SDS011;2902;42.130;24.732;2023-08-01T07:24:45;2.97;;;2.30;;
5754;SDS011;2902;42.130;24.732;2023-08-01T07:27:12;2.50;;;2.30;;
5754;SDS011;2902;42.130;24.732;2023-08-01T07:29:38;4.18;;;1.70;;
5754;SDS011;2902;42.130;24.732;2023-08-01T07:32:05;7.30;;;2.25;;
5754;SDS011;2902;42.130;24.732;2023-08-01T07:34:32;2.75;;;2.10;;
5754;SDS011;2902;42.130;24.732;2023-08-01T07:36:59;7.82;;;2.28;;
5754;SDS011;2902;42.130;24.732;2023-08-01T07:39:27;2.03;;;1.92;;
5754;SDS011;2902;42.130;24.732;2023-08-01T07:41:54;2.10;;;2.00;;
5754;SDS011;2902;42.130;24.732;2023-08-01T07:44:22;2.63;;;2.25;;
5754;SDS011;2902;42.130;24.732;2023-08-01T07:46:48;2.55;;;2.33;;
5754;SDS011;2902;42.130;24.732;2023-08-01T07:49:15;2.53;;;2.33;;
5754;SDS011;2902;42.130;24.732;2023-08-01T07:51:42;2.22;;;2.08;;
5754;SDS011;2902;42.130;24.732;2023-08-01T07:54:08;4.35;;;2.22;;
5754;SDS011;2902;42.130;24.732;2023-08-01T07:56:37;2.40;;;2.20;;
5754;SDS011;2902;42.130;24.732;2023-08-01T07:59:04;2.42;;;2.17;;
5754;SDS011;2902;42.130;24.732;2023-08-01T08:01:31;2.20;;;2.10;;
5754;SDS011;2902;42.130;24.732;2023-08-01T08:03:57;2.47;;;2.28;;
5754;SDS011;2902;42.130;24.732;2023-08-01T08:06:24;2.00;;;1.90;;
5754;SDS011;2902;42.130;24.732;2023-08-01T08:08:50;3.28;;;1.88;;
5754;SDS011;2902;42.130;24.732;2023-08-01T08:11:17;3.58;;;2.13;;
5754;SDS011;2902;42.130;24.732;2023-08-01T08:13:45;2.72;;;2.53;;
5754;SDS011;2902;42.130;24.732;2023-08-01T08:16:12;2.38;;;2.05;;
5754;SDS011;2902;42.130;24.732;2023-08-01T08:18:38;3.05;;;2.80;;
5754;SDS011;2902;42.130;24.732;2023-08-01T08:21:05;2.70;;;2.50;;
5754;SDS011;2902;42.130;24.732;2023-08-01T08:23:32;4.05;;;2.53;;
5754;SDS011;2902;42.130;24.732;2023-08-01T08:25:58;2.83;;;2.63;;
5754;SDS011;2902;42.130;24.732;2023-08-01T08:28:29;4.15;;;2.25;;
5754;SDS011;2902;42.130;24.732;2023-08-01T08:30:58;4.40;;;2.28;;
5754;SDS011;2902;42.130;24.732;2023-08-01T08:33:26;3.70;;;2.42;;
5754;SDS011;2902;42.130;24.732;2023-08-01T08:35:53;31.17;;;3.92;;
5754;SDS011;2902;42.130;24.732;2023-08-01T08:38:20;3.20;;;2.30;;
5754;SDS011;2902;42.130;24.732;2023-08-01T08:40:51;31.67;;;4.68;;
5754;SDS011;2902;42.130;24.732;2023-08-01T08:43:34;3.20;;;2.47;;
5754;SDS011;2902;42.130;24.732;2023-08-01T08:46:03;2.50;;;2.30;;
5754;SDS011;2902;42.130;24.732;2023-08-01T08:48:30;3.38;;;2.90;;
5754;SDS011;2902;42.130;24.732;2023-08-01T08:50:59;3.63;;;2.65;;
5754;SDS011;2902;42.130;24.732;2023-08-01T08:53:28;2.97;;;2.45;;
5754;SDS011;2902;42.130;24.732;2023-08-01T08:55:57;2.78;;;2.67;;
5754;SDS011;2902;42.130;24.732;2023-08-01T08:58:25;2.45;;;2.35;;
5754;SDS011;2902;42.130;24.732;2023-08-01T09:00:55;2.75;;;2.45;;
5754;SDS011;2902;42.130;24.732;2023-08-01T09:03:24;3.00;;;2.70;;
5754;SDS011;2902;42.130;24.732;2023-08-01T09:05:52;3.25;;;2.60;;
5754;SDS011;2902;42.130;24.732;2023-08-01T09:08:25;5.50;;;2.83;;
5754;SDS011;2902;42.130;24.732;2023-08-01T09:10:55;2.60;;;2.40;;
5754;SDS011;2902;42.130;24.732;2023-08-01T09:13:23;6.95;;;3.00;;
5754;SDS011;2902;42.130;24.732;2023-08-01T09:15:50;3.30;;;2.92;;
5754;SDS011;2902;42.130;24.732;2023-08-01T09:18:17;2.45;;;2.35;;
5754;SDS011;2902;42.130;24.732;2023-08-01T09:20:46;2.60;;;2.50;;
5754;SDS011;2902;42.130;24.732;2023-08-01T09:23:14;2.58;;;2.47;;
5754;SDS011;2902;42.130;24.732;2023-08-01T09:25:42;2.97;;;2.70;;
5754;SDS011;2902;42.130;24.732;2023-08-01T09:28:16;2.70;;;2.60;;
5754;SDS011;2902;42.130;24.732;2023-08-01T09:30:47;2.55;;;2.30;;
5754;SDS011;2902;42.130;24.732;2023-08-01T09:33:14;2.35;;;2.25;;
5754;SDS011;2902;42.130;24.732;2023-08-01T09:35:41;2.80;;;2.60;;
5754;SDS011;2902;42.130;24.732;2023-08-01T09:38:11;4.53;;;2.88;;
5754;SDS011;2902;42.130;24.732;2023-08-01T09:40:38;3.03;;;2.80;;
5754;SDS011;2902;42.130;24.732;2023-08-01T09:43:06;3.50;;;3.30;;
5754;SDS011;2902;42.130;24.732;2023-08-01T09:45:32;5.30;;;3.20;;
5754;SDS011;2902;42.130;24.732;2023-08-01T09:48:01;4.07;;;2.72;;
5754;SDS011;2902;42.130;24.732;2023-08-01T09:50:29;3.20;;;3.00;;
5754;SDS011;2902;42.130;24.732;2023-08-01T09:52:55;4.03;;;3.35;;
5754;SDS011;2902;42.130;24.732;2023-08-01T09:55:34;3.03;;;2.70;;
5754;SDS011;2902;42.130;24.732;2023-08-01T09:58:01;3.53;;;3.30;;
5754;SDS011;2902;42.130;24.732;2023-08-01T10:00:29;5.18;;;3.10;;
5754;SDS011;2902;42.130;24.732;2023-08-01T10:02:56;3.10;;;2.90;;
5754;SDS011;2902;42.130;24.732;2023-08-01T10:05:26;2.75;;;2.65;;
5754;SDS011;2902;42.130;24.732;2023-08-01T10:07:55;3.10;;;2.60;;
5754;SDS011;2902;42.130;24.732;2023-08-01T10:10:25;2.97;;;2.78;;
5754;SDS011;2902;42.130;24.732;2023-08-01T10:12:53;4.50;;;2.85;;
5754;SDS011;2902;42.130;24.732;2023-08-01T10:15:21;3.15;;;2.95;;
5754;SDS011;2902;42.130;24.732;2023-08-01T10:17:47;3.50;;;3.15;;
5754;SDS011;2902;42.130;24.732;2023-08-01T10:20:14;3.58;;;3.38;;
5754;SDS011;2902;42.130;24.732;2023-08-01T10:22:42;3.15;;;2.83;;
5754;SDS011;2902;42.130;24.732;2023-08-01T10:25:10;3.20;;;3.03;;
5754;SDS011;2902;42.130;24.732;2023-08-01T10:27:37;5.85;;;2.90;;
5754;SDS011;2902;42.130;24.732;2023-08-01T10:30:07;6.90;;;2.88;;
5754;SDS011;2902;42.130;24.732;2023-08-01T10:32:35;3.45;;;3.25;;
5754;SDS011;2902;42.130;24.732;2023-08-01T10:35:03;3.13;;;2.97;;
5754;SDS011;2902;42.130;24.732;2023-08-01T10:37:40;4.38;;;3.35;;
5754;SDS011;2902;42.130;24.732;2023-08-01T10:40:08;3.63;;;3.33;;
5754;SDS011;2902;42.130;24.732;2023-08-01T10:42:39;4.05;;;3.75;;
5754;SDS011;2902;42.130;24.732;2023-08-01T10:45:08;3.30;;;3.20;;
5754;SDS011;2902;42.130;24.732;2023-08-01T10:47:47;3.70;;;3.40;;
5754;SDS011;2902;42.130;24.732;2023-08-01T10:50:14;6.35;;;3.70;;
5754;SDS011;2902;42.130;24.732;2023-08-01T10:52:42;4.03;;;3.60;;
5754;SDS011;2902;42.130;24.732;2023-08-01T10:55:09;3.42;;;3.28;;
5754;SDS011;2902;42.130;24.732;2023-08-01T10:57:39;4.03;;;3.83;;
5754;SDS011;2902;42.130;24.732;2023-08-01T11:00:16;5.25;;;3.50;;
5754;SDS011;2902;42.130;24.732;2023-08-01T11:02:48;3.50;;;3.20;;
5754;SDS011;2902;42.130;24.732;2023-08-01T11:05:15;3.85;;;3.65;;
5754;SDS011;2902;42.130;24.732;2023-08-01T11:07:42;4.63;;;4.30;;
5754;SDS011;2902;42.130;24.732;2023-08-01T11:10:20;4.43;;;4.13;;
5754;SDS011;2902;42.130;24.732;2023-08-01T11:12:46;4.20;;;3.95;;
5754;SDS011;2902;42.130;24.732;2023-08-01T11:15:14;4.43;;;4.20;;
5754;SDS011;2902;42.130;24.732;2023-08-01T11:17:43;4.85;;;3.80;;
5754;SDS011;2902;42.130;24.732;2023-08-01T11:20:13;4.32;;;4.07;;
5754;SDS011;2902;42.130;24.732;2023-08-01T11:22:48;4.13;;;3.92;;
5754;SDS011;2902;42.130;24.732;2023-08-01T11:25:16;3.95;;;3.75;;
5754;SDS011;2902;42.130;24.732;2023-08-01T11:27:43;4.03;;;3.83;;
5754;SDS011;2902;42.130;24.732;2023-08-01T11:30:10;4.97;;;4.57;;
5754;SDS011;2902;42.130;24.732;2023-08-01T11:32:37;7.45;;;4.43;;
5754;SDS011;2902;42.130;24.732;2023-08-01T11:35:06;4.05;;;3.75;;
5754;SDS011;2902;42.130;24.732;2023-08-01T11:37:33;4.18;;;3.88;;
5754;SDS011;2902;42.130;24.732;2023-08-01T11:40:01;4.13;;;3.90;;
5754;SDS011;2902;42.130;24.732;2023-08-01T11:42:31;5.28;;;4.80;;
5754;SDS011;2902;42.130;24.732;2023-08-01T11:45:08;4.47;;;4.05;;
5754;SDS011;2902;42.130;24.732;2023-08-01T11:47:36;4.10;;;3.90;;
5754;SDS011;2902;42.130;24.732;2023-08-01T11:50:03;4.25;;;4.13;;
5754;SDS011;2902;42.130;24.732;2023-08-01T11:52:34;4.85;;;4.50;;
5754;SDS011;2902;42.130;24.732;2023-08-01T11:55:04;4.75;;;4.55;;
5754;SDS011;2902;42.130;24.732;2023-08-01T11:57:31;4.95;;;4.60;;
5754;SDS011;2902;42.130;24.732;2023-08-01T11:59:58;6.53;;;5.22;;
5754;SDS011;2902;42.130;24.732;2023-08-01T12:02:25;5.18;;;4.88;;
5754;SDS011;2902;42.130;24.732;2023-08-01T12:04:54;5.50;;;5.20;;
5754;SDS011;2902;42.130;24.732;2023-08-01T12:07:24;4.88;;;4.68;;
5754;SDS011;2902;42.130;24.732;2023-08-01T12:09:56;6.55;;;6.07;;
5754;SDS011;2902;42.130;24.732;2023-08-01T12:12:25;5.35;;;4.85;;
5754;SDS011;2902;42.130;24.732;2023-08-01T12:14:52;4.60;;;4.40;;
5754;SDS011;2902;42.130;24.732;2023-08-01T12:17:19;5.13;;;4.80;;
5754;SDS011;2902;42.130;24.732;2023-08-01T12:19:46;5.53;;;5.22;;
5754;SDS011;2902;42.130;24.732;2023-08-01T12:22:13;5.07;;;4.75;;
5754;SDS011;2902;42.130;24.732;2023-08-01T12:24:40;4.78;;;4.53;;
5754;SDS011;2902;42.130;24.732;2023-08-01T12:27:08;6.03;;;5.32;;
5754;SDS011;2902;42.130;24.732;2023-08-01T12:29:36;5.25;;;4.95;;
5754;SDS011;2902;42.130;24.732;2023-08-01T12:32:03;5.15;;;4.72;;
5754;SDS011;2902;42.130;24.732;2023-08-01T12:34:31;5.20;;;4.90;;
5754;SDS011;2902;42.130;24.732;2023-08-01T12:36:58;4.80;;;4.40;;
5754;SDS011;2902;42.130;24.732;2023-08-01T12:39:25;5.20;;;4.90;;
5754;SDS011;2902;42.130;24.732;2023-08-01T12:41:52;4.90;;;4.70;;
5754;SDS011;2902;42.130;24.732;2023-08-01T12:44:20;5.40;;;5.00;;
5754;SDS011;2902;42.130;24.732;2023-08-01T12:46:47;4.82;;;4.63;;
5754;SDS011;2902;42.130;24.732;2023-08-01T12:49:13;4.85;;;4.47;;
5754;SDS011;2902;42.130;24.732;2023-08-01T12:51:40;5.25;;;4.75;;
5754;SDS011;2902;42.130;24.732;2023-08-01T12:54:07;4.95;;;4.70;;
5754;SDS011;2902;42.130;24.732;2023-08-01T12:56:34;5.18;;;4.82;;
5754;SDS011;2902;42.130;24.732;2023-08-01T12:59:00;4.70;;;4.50;;
5754;SDS011;2902;42.130;24.732;2023-08-01T13:01:28;5.65;;;5.13;;
5754;SDS011;2902;42.130;24.732;2023-08-01T13:03:55;6.15;;;4.75;;
5754;SDS011;2902;42.130;24.732;2023-08-01T13:06:22;5.38;;;4.80;;
5754;SDS011;2902;42.130;24.732;2023-08-01T13:08:48;5.68;;;5.22;;
5754;SDS011;2902;42.130;24.732;2023-08-01T13:11:15;6.57;;;4.80;;
5754;SDS011;2902;42.130;24.732;2023-08-01T13:13:42;5.30;;;4.90;;
5754;SDS011;2902;42.130;24.732;2023-08-01T13:16:09;5.15;;;4.90;;
5754;SDS011;2902;42.130;24.732;2023-08-01T13:18:38;5.07;;;4.68;;
5754;SDS011;2902;42.130;24.732;2023-08-01T13:21:09;5.07;;;4.80;;
5754;SDS011;2902;42.130;24.732;2023-08-01T13:23:36;4.90;;;4.60;;
5754;SDS011;2902;42.130;24.732;2023-08-01T13:26:03;5.07;;;4.82;;
5754;SDS011;2902;42.130;24.732;2023-08-01T13:28:29;5.53;;;5.30;;
5754;SDS011;2902;42.130;24.732;2023-08-01T13:30:56;6.10;;;5.70;;
5754;SDS011;2902;42.130;24.732;2023-08-01T13:33:23;5.00;;;4.80;;
5754;SDS011;2902;42.130;24.732;2023-08-01T13:35:52;5.18;;;4.88;;
5754;SDS011;2902;42.130;24.732;2023-08-01T13:38:19;5.65;;;4.65;;
5754;SDS011;2902;42.130;24.732;2023-08-01T13:40:46;4.90;;;4.60;;
5754;SDS011;2902;42.130;24.732;2023-08-01T13:43:13;4.85;;;4.65;;
5754;SDS011;2902;42.130;24.732;2023-08-01T13:45:40;6.05;;;4.90;;
5754;SDS011;2902;42.130;24.732;2023-08-01T13:48:07;5.55;;;5.15;;
5754;SDS011;2902;42.130;24.732;2023-08-01T13:50:33;5.50;;;5.30;;
5754;SDS011;2902;42.130;24.732;2023-08-01T13:53:01;6.22;;;5.78;;
5754;SDS011;2902;42.130;24.732;2023-08-01T13:55:28;5.30;;;5.00;;
5754;SDS011;2902;42.130;24.732;2023-08-01T13:57:55;4.97;;;4.78;;
5754;SDS011;2902;42.130;24.732;2023-08-01T14:00:22;5.15;;;4.95;;
5754;SDS011;2902;42.130;24.732;2023-08-01T14:02:49;5.18;;;4.88;;
5754;SDS011;2902;42.130;24.732;2023-08-01T14:05:16;5.57;;;5.30;;
5754;SDS011;2902;42.130;24.732;2023-08-01T14:07:43;9.73;;;4.78;;
5754;SDS011;2902;42.130;24.732;2023-08-01T14:10:11;4.60;;;4.40;;
5754;SDS011;2902;42.130;24.732;2023-08-01T14:12:39;4.80;;;4.60;;
5754;SDS011;2902;42.130;24.732;2023-08-01T14:15:06;5.63;;;5.32;;
5754;SDS011;2902;42.130;24.732;2023-08-01T14:17:34;5.53;;;5.13;;
5754;SDS011;2902;42.130;24.732;2023-08-01T14:20:00;6.38;;;5.80;;
5754;SDS011;2902;42.130;24.732;2023-08-01T14:22:29;8.38;;;4.82;;
5754;SDS011;2902;42.130;24.732;2023-08-01T14:24:55;5.55;;;5.07;;
5754;SDS011;2902;42.130;24.732;2023-08-01T14:27:23;5.60;;;5.10;;
5754;SDS011;2902;42.130;24.732;2023-08-01T14:29:50;5.63;;;5.43;;
5754;SDS011;2902;42.130;24.732;2023-08-01T14:32:17;5.47;;;5.25;;
5754;SDS011;2902;42.130;24.732;2023-08-01T14:34:44;6.15;;;5.80;;
5754;SDS011;2902;42.130;24.732;2023-08-01T14:37:11;6.22;;;5.88;;
5754;SDS011;2902;42.130;24.732;2023-08-01T14:39:37;5.90;;;5.60;;
5754;SDS011;2902;42.130;24.732;2023-08-01T14:42:04;6.32;;;5.88;;
5754;SDS011;2902;42.130;24.732;2023-08-01T14:44:33;5.72;;;5.43;;
5754;SDS011;2902;42.130;24.732;2023-08-01T14:47:00;5.72;;;5.45;;
5754;SDS011;2902;42.130;24.732;2023-08-01T14:49:26;6.80;;;5.50;;
5754;SDS011;2902;42.130;24.732;2023-08-01T14:51:54;5.43;;;5.22;;
5754;SDS011;2902;42.130;24.732;2023-08-01T14:54:21;5.63;;;5.28;;
5754;SDS011;2902;42.130;24.732;2023-08-01T14:56:47;5.65;;;5.15;;
5754;SDS011;2902;42.130;24.732;2023-08-01T14:59:14;6.75;;;6.13;;
5754;SDS011;2902;42.130;24.732;2023-08-01T15:01:42;7.47;;;6.82;;